createdAt,value
2023-06-19T00:00:08.418Z,9.18
2023-06-19T00:03:00.986Z,8.82
2023-06-19T00:05:30.079Z,9.85
2023-06-19T00:08:00.665Z,8.88
2023-06-19T00:10:29.621Z,9.10
2023-06-19T00:12:58.725Z,9.13
2023-06-19T00:15:30.576Z,9.82
2023-06-19T00:18:00.917Z,9.73
2023-06-19T00:20:29.785Z,9.50
2023-06-19T00:22:59.019Z,9.98
2023-06-19T00:25:27.729Z,10.23
2023-06-19T00:27:56.745Z,11.43
2023-06-19T00:30:25.759Z,10.80
2023-06-19T00:32:55.365Z,10.70
2023-06-19T00:35:28.508Z,11.25
2023-06-19T00:37:57.644Z,11.93
2023-06-19T00:40:31.584Z,12.20
2023-06-19T00:43:01.041Z,11.23
2023-06-19T00:45:30.019Z,11.40
2023-06-19T00:48:00.732Z,13.05
2023-06-19T00:50:31.430Z,11.95
2023-06-19T00:53:01.027Z,11.13
2023-06-19T00:55:32.744Z,11.75
2023-06-19T00:58:02.031Z,11.90
2023-06-19T01:00:30.846Z,11.43
2023-06-19T01:03:00.997Z,11.23
2023-06-19T01:05:31.535Z,11.40
2023-06-19T01:08:15.520Z,9.98
2023-06-19T01:10:51.308Z,10.82
2023-06-19T01:13:33.814Z,11.95
2023-06-19T01:16:03.496Z,11.57
2023-06-19T01:18:35.960Z,11.82
2023-06-19T01:21:18.998Z,11.90
2023-06-19T01:24:13.490Z,12.98
2023-06-19T01:26:43.168Z,11.70
2023-06-19T01:29:12.878Z,13.13
2023-06-19T01:32:06.773Z,13.23
2023-06-19T01:34:36.447Z,12.30
2023-06-19T01:37:06.847Z,13.27
2023-06-19T01:39:37.350Z,13.68
2023-06-19T01:42:06.735Z,11.43
2023-06-19T01:44:36.736Z,14.38
2023-06-19T01:47:12.486Z,14.05
2023-06-19T01:49:41.585Z,14.35
2023-06-19T01:52:10.298Z,12.65
2023-06-19T01:54:39.333Z,13.07
2023-06-19T01:57:09.450Z,12.38
2023-06-19T01:59:38.907Z,14.23
2023-06-19T02:02:08.089Z,13.50
2023-06-19T02:04:37.204Z,14.68
2023-06-19T02:07:06.197Z,14.55
2023-06-19T02:09:35.563Z,13.88
2023-06-19T02:12:04.466Z,14.90
2023-06-19T02:14:33.503Z,14.88
2023-06-19T02:17:02.298Z,15.00
2023-06-19T02:19:31.414Z,16.02
2023-06-19T02:22:00.135Z,17.30
2023-06-19T02:24:29.411Z,15.75
2023-06-19T02:26:58.325Z,16.33
2023-06-19T02:29:27.764Z,15.35
2023-06-19T02:31:56.974Z,17.20
2023-06-19T02:34:26.119Z,15.73
2023-06-19T02:36:54.783Z,16.23
2023-06-19T02:39:25.046Z,16.20
2023-06-19T02:41:53.866Z,15.15
2023-06-19T02:44:23.074Z,15.25
2023-06-19T02:46:51.938Z,12.88
2023-06-19T02:49:21.064Z,11.82
2023-06-19T02:51:49.785Z,10.45
2023-06-19T02:54:18.944Z,11.55
2023-06-19T02:56:47.752Z,11.32
2023-06-19T02:59:20.441Z,12.15
2023-06-19T03:01:49.331Z,11.32
2023-06-19T03:04:18.855Z,11.63
2023-06-19T03:06:47.607Z,11.57
2023-06-19T03:09:17.498Z,12.70
2023-06-19T03:11:46.484Z,11.23
2023-06-19T03:14:16.269Z,11.63
2023-06-19T03:16:45.168Z,13.32
2023-06-19T03:19:14.940Z,11.15
2023-06-19T03:21:43.687Z,11.40
2023-06-19T03:24:13.930Z,11.40
2023-06-19T03:26:42.704Z,9.65
2023-06-19T03:29:11.963Z,9.68
2023-06-19T03:32:10.146Z,9.90
2023-06-19T03:34:39.392Z,11.05
2023-06-19T03:37:10.783Z,11.00
2023-06-19T03:39:39.892Z,12.18
2023-06-19T03:42:11.594Z,11.80
2023-06-19T03:44:42.077Z,10.90
2023-06-19T03:47:10.859Z,12.88
2023-06-19T03:49:40.058Z,10.85
2023-06-19T03:52:09.533Z,10.93
2023-06-19T03:54:38.877Z,11.40
2023-06-19T03:57:09.827Z,12.02
2023-06-19T03:59:39.033Z,11.77
2023-06-19T04:02:07.770Z,11.25
2023-06-19T04:04:36.852Z,11.15
2023-06-19T04:07:07.260Z,11.38
2023-06-19T04:09:36.351Z,11.70
2023-06-19T04:12:05.413Z,11.82
2023-06-19T04:14:35.069Z,11.45
2023-06-19T04:17:03.873Z,11.27
2023-06-19T04:19:33.162Z,12.15
2023-06-19T04:22:01.861Z,10.65
2023-06-19T04:24:30.922Z,9.82
2023-06-19T04:27:00.045Z,11.40
2023-06-19T04:29:33.208Z,10.27
2023-06-19T04:32:04.430Z,10.57
2023-06-19T04:34:33.702Z,10.43
2023-06-19T04:37:02.456Z,10.52
2023-06-19T04:39:31.690Z,10.95
2023-06-19T04:42:00.713Z,11.68
2023-06-19T04:44:34.845Z,11.52
2023-06-19T04:47:03.676Z,11.85
2023-06-19T04:49:32.773Z,12.90
2023-06-19T04:52:01.791Z,12.85
2023-06-19T04:54:33.982Z,14.38
2023-06-19T04:57:02.929Z,12.45
2023-06-19T04:59:32.606Z,14.55
2023-06-19T05:02:01.512Z,17.40
2023-06-19T05:04:34.123Z,13.88
2023-06-19T05:07:03.252Z,15.73
2023-06-19T05:09:32.357Z,16.05
2023-06-19T05:12:01.079Z,16.70
2023-06-19T05:14:30.151Z,19.48
2023-06-19T05:16:59.034Z,18.65
2023-06-19T05:19:28.289Z,19.25
2023-06-19T05:21:57.050Z,16.25
2023-06-19T05:24:26.159Z,20.42
2023-06-19T05:26:54.945Z,22.17
2023-06-19T05:29:24.063Z,20.15
2023-06-19T05:31:52.994Z,22.55
2023-06-19T05:34:24.108Z,21.02
2023-06-19T05:36:52.861Z,23.63
2023-06-19T05:39:22.001Z,22.15
2023-06-19T05:41:50.779Z,21.55
2023-06-19T05:44:20.334Z,21.95
2023-06-19T05:46:49.114Z,20.77
2023-06-19T05:49:18.302Z,22.15
2023-06-19T05:51:47.159Z,23.30
2023-06-19T05:54:16.551Z,22.88
2023-06-19T05:56:45.237Z,23.33
2023-06-19T05:59:15.944Z,23.40
2023-06-19T06:01:45.015Z,23.77
2023-06-19T06:04:15.472Z,23.25
2023-06-19T06:06:44.455Z,23.13
2023-06-19T06:09:14.468Z,24.38
2023-06-19T06:11:43.533Z,25.23
2023-06-19T06:14:13.552Z,23.02
2023-06-19T06:16:42.817Z,21.63
2023-06-19T06:19:12.066Z,22.30
2023-06-19T06:21:41.755Z,25.50
2023-06-19T06:24:10.974Z,24.60
2023-06-19T06:26:39.904Z,24.35
2023-06-19T06:29:09.390Z,25.45
2023-06-19T06:31:39.511Z,22.20
2023-06-19T06:34:10.056Z,23.58
2023-06-19T06:36:43.987Z,21.85
2023-06-19T06:39:16.052Z,24.00
2023-06-19T06:41:44.828Z,22.98
2023-06-19T06:44:15.489Z,20.25
2023-06-19T06:46:44.276Z,19.33
2023-06-19T06:49:13.811Z,20.27
2023-06-19T06:51:42.606Z,16.77
2023-06-19T06:54:11.748Z,19.80
2023-06-19T06:56:40.522Z,16.48
2023-06-19T06:59:09.641Z,14.80
2023-06-19T07:01:38.597Z,16.23
2023-06-19T07:04:08.067Z,16.02
2023-06-19T07:06:36.852Z,18.20
2023-06-19T07:09:06.079Z,13.43
2023-06-19T07:11:34.966Z,15.85
2023-06-19T07:14:04.606Z,17.77
2023-06-19T07:16:33.448Z,16.75
2023-06-19T07:19:02.701Z,15.13
2023-06-19T07:21:32.755Z,17.63
2023-06-19T07:24:01.870Z,16.65
2023-06-19T07:26:30.657Z,13.88
2023-06-19T07:28:59.807Z,13.43
2023-06-19T07:31:28.603Z,15.85
2023-06-19T07:33:57.773Z,15.45
2023-06-19T07:36:26.588Z,13.13
2023-06-19T07:38:57.185Z,14.77
2023-06-19T07:41:25.952Z,12.98
2023-06-19T07:43:55.074Z,14.80
2023-06-19T07:46:23.889Z,13.68
2023-06-19T07:48:52.986Z,12.88
2023-06-19T07:51:21.849Z,13.98
2023-06-19T07:53:51.054Z,12.27
2023-06-19T07:56:19.853Z,20.45
2023-06-19T07:58:49.231Z,21.95
2023-06-19T08:01:18.464Z,19.00
2023-06-19T08:03:48.148Z,24.52
2023-06-19T08:06:17.123Z,22.45
2023-06-19T08:08:46.663Z,19.50
2023-06-19T08:11:15.530Z,17.17
2023-06-19T08:13:44.859Z,16.13
2023-06-19T08:16:13.660Z,15.93
2023-06-19T08:18:43.808Z,16.77
2023-06-19T08:21:12.847Z,16.83
2023-06-19T08:23:45.009Z,16.98
2023-06-19T08:26:13.912Z,17.00
2023-06-19T08:28:43.429Z,16.10
2023-06-19T08:31:12.747Z,18.42
2023-06-19T08:33:41.962Z,18.80
2023-06-19T08:36:10.859Z,16.85
2023-06-19T08:38:40.073Z,18.67
2023-06-19T08:41:08.861Z,17.92
2023-06-19T08:43:39.533Z,14.68
2023-06-19T08:46:19.051Z,13.18
2023-06-19T08:48:50.609Z,20.57
2023-06-19T08:51:19.543Z,16.67
2023-06-19T08:53:53.593Z,18.50
2023-06-19T08:56:22.524Z,18.23
2023-06-19T08:58:52.146Z,15.07
2023-06-19T09:01:21.093Z,16.92
2023-06-19T09:03:54.034Z,20.20
2023-06-19T09:06:23.184Z,17.50
2023-06-19T09:09:01.928Z,19.25
2023-06-19T09:11:31.946Z,19.63
2023-06-19T09:14:01.114Z,17.33
2023-06-19T09:16:40.286Z,20.42
2023-06-19T09:19:09.760Z,23.55
2023-06-19T09:21:39.625Z,22.58
2023-06-19T09:24:09.641Z,22.58
2023-06-19T09:26:39.714Z,27.15
2023-06-19T09:29:20.209Z,23.40
2023-06-19T09:31:49.348Z,27.30
2023-06-19T09:34:18.597Z,27.63
2023-06-19T09:36:47.401Z,25.00
2023-06-19T09:39:16.851Z,23.85
2023-06-19T09:41:48.178Z,18.73
2023-06-19T09:44:17.572Z,16.55
2023-06-19T09:46:47.309Z,17.25
2023-06-19T09:49:16.627Z,18.27
2023-06-19T09:51:46.764Z,25.58
2023-06-19T09:54:16.086Z,24.13
2023-06-19T09:56:44.896Z,22.65
2023-06-19T09:59:14.975Z,19.15
2023-06-19T10:01:44.325Z,16.52
2023-06-19T10:04:14.388Z,19.60
2023-06-19T10:06:50.330Z,20.00
2023-06-19T10:09:19.686Z,15.45
2023-06-19T10:11:54.949Z,13.73
2023-06-19T10:14:24.250Z,14.55
2023-06-19T10:16:53.031Z,15.20
2023-06-19T10:19:23.364Z,16.55
2023-06-19T10:21:54.468Z,13.77
2023-06-19T10:24:25.614Z,13.05
2023-06-19T10:27:01.742Z,13.27
2023-06-19T10:29:41.049Z,12.95
2023-06-19T10:32:12.311Z,12.45
2023-06-19T10:34:41.825Z,12.05
2023-06-19T10:37:10.634Z,11.55
2023-06-19T10:39:39.845Z,10.50
2023-06-19T10:42:09.651Z,11.35
2023-06-19T10:44:39.410Z,10.88
2023-06-19T10:47:11.729Z,10.85
2023-06-19T10:49:40.866Z,10.00
2023-06-19T10:52:10.015Z,9.90
2023-06-19T10:54:42.021Z,9.35
2023-06-19T10:57:10.803Z,9.10
2023-06-19T10:59:41.172Z,9.20
2023-06-19T11:02:10.240Z,10.25
2023-06-19T11:04:40.946Z,10.70
2023-06-19T11:07:10.107Z,11.13
2023-06-19T11:09:40.508Z,9.18
2023-06-19T11:12:13.021Z,8.77
2023-06-19T11:14:43.785Z,10.13
2023-06-19T11:17:12.740Z,9.13
2023-06-19T11:19:44.940Z,9.13
2023-06-19T11:22:13.969Z,9.93
2023-06-19T11:24:47.271Z,9.75
2023-06-19T11:29:49.327Z,8.88
2023-06-19T11:32:26.429Z,8.40
2023-06-19T11:34:55.995Z,9.00
2023-06-19T11:37:24.904Z,10.23
2023-06-19T11:39:54.911Z,9.27
2023-06-19T11:42:25.591Z,8.00
2023-06-19T11:44:58.405Z,11.88
2023-06-19T11:49:56.955Z,12.43
2023-06-19T11:52:25.861Z,13.32
2023-06-19T11:54:55.124Z,10.38
2023-06-19T11:57:24.267Z,10.48
2023-06-19T11:59:53.420Z,11.45
2023-06-19T12:02:22.222Z,9.73
2023-06-19T12:04:51.609Z,9.90
2023-06-19T12:07:21.150Z,11.10
2023-06-19T12:09:50.378Z,10.15
2023-06-19T12:12:19.203Z,12.32
2023-06-19T12:14:48.597Z,9.57
2023-06-19T12:17:17.519Z,10.35
2023-06-19T12:19:46.692Z,10.32
2023-06-19T12:22:15.508Z,11.07
2023-06-19T12:24:44.687Z,9.68
2023-06-19T12:27:13.587Z,9.40
2023-06-19T12:29:42.829Z,9.45
2023-06-19T12:32:11.616Z,9.15
2023-06-19T12:34:41.753Z,7.65
2023-06-19T12:37:10.597Z,7.35
2023-06-19T12:39:39.836Z,9.27
2023-06-19T12:42:09.038Z,7.57
2023-06-19T12:44:38.187Z,7.55
2023-06-19T12:47:07.553Z,8.00
2023-06-19T12:49:36.766Z,7.00
2023-06-19T12:52:05.990Z,6.95
2023-06-19T12:54:35.290Z,6.55
2023-06-19T12:57:04.465Z,6.07
2023-06-19T12:59:34.073Z,5.63
2023-06-19T13:02:03.129Z,7.90
2023-06-19T13:04:32.333Z,6.70
2023-06-19T13:07:01.204Z,7.25
2023-06-19T13:09:31.354Z,7.50
2023-06-19T13:12:00.175Z,7.03
2023-06-19T13:14:29.496Z,7.03
2023-06-19T13:17:00.102Z,7.53
2023-06-19T13:19:29.378Z,7.40
2023-06-19T13:21:58.267Z,7.43
2023-06-19T13:24:30.351Z,7.32
2023-06-19T13:26:59.327Z,7.82
2023-06-19T13:29:28.943Z,6.53
2023-06-19T13:31:57.755Z,5.78
2023-06-19T13:34:27.459Z,6.00
2023-06-19T13:36:56.249Z,6.07
2023-06-19T13:39:25.406Z,5.72
2023-06-19T13:41:54.203Z,5.95
2023-06-19T13:44:23.393Z,6.72
2023-06-19T13:46:52.297Z,6.80
2023-06-19T13:49:21.445Z,6.38
2023-06-19T13:51:50.325Z,6.13
2023-06-19T13:54:20.202Z,6.10
2023-06-19T13:56:49.544Z,6.35
2023-06-19T13:59:18.668Z,6.32
2023-06-19T14:01:47.613Z,6.47
2023-06-19T14:04:16.845Z,6.20
2023-06-19T14:06:45.624Z,6.03
2023-06-19T14:09:14.863Z,5.97
2023-06-19T14:11:45.418Z,6.25
2023-06-19T14:14:14.809Z,5.75
2023-06-19T14:16:43.644Z,6.85
2023-06-19T14:19:12.816Z,6.18
2023-06-19T14:21:41.637Z,6.45
2023-06-19T14:24:10.838Z,6.07
2023-06-19T14:26:39.703Z,6.13
2023-06-19T14:29:09.691Z,6.00
2023-06-19T14:31:38.504Z,6.82
2023-06-19T14:34:08.010Z,6.28
2023-06-19T14:36:38.621Z,6.72
2023-06-19T14:39:07.803Z,7.25
2023-06-19T14:41:36.883Z,5.68
2023-06-19T14:44:07.270Z,6.43
2023-06-19T14:46:40.929Z,6.75
2023-06-19T14:49:14.359Z,6.18
2023-06-19T14:51:46.011Z,5.88
2023-06-19T14:54:17.053Z,5.75
2023-06-19T14:56:49.492Z,6.28
2023-06-19T14:59:19.722Z,6.32
2023-06-19T15:01:48.583Z,6.05
2023-06-19T15:04:17.861Z,5.95
2023-06-19T15:06:47.311Z,7.03
2023-06-19T15:09:16.612Z,5.88
2023-06-19T15:11:45.461Z,5.65
2023-06-19T15:14:14.621Z,6.65
2023-06-19T15:16:43.441Z,6.65
2023-06-19T15:19:13.103Z,6.68
2023-06-19T15:21:43.489Z,5.85
2023-06-19T15:24:12.737Z,6.03
2023-06-19T15:26:41.572Z,6.47
2023-06-19T15:29:11.779Z,6.05
2023-06-19T15:31:40.674Z,6.63
2023-06-19T15:34:10.030Z,6.65
2023-06-19T15:36:38.813Z,5.85
2023-06-19T15:39:07.955Z,6.32
2023-06-19T15:41:36.862Z,6.03
2023-06-19T15:44:06.138Z,6.10
2023-06-19T15:46:35.066Z,5.90
2023-06-19T15:49:04.474Z,6.38
2023-06-19T15:51:33.403Z,5.90
2023-06-19T15:54:04.238Z,6.07
2023-06-19T15:56:33.653Z,6.75
2023-06-19T15:59:02.850Z,5.47
2023-06-19T16:01:31.597Z,6.30
2023-06-19T16:04:02.142Z,6.20
2023-06-19T16:06:31.190Z,6.05
2023-06-19T16:09:01.014Z,6.53
2023-06-19T16:11:31.371Z,5.85
2023-06-19T16:14:00.893Z,5.93
2023-06-19T16:16:29.752Z,5.43
2023-06-19T16:18:59.018Z,6.32
2023-06-19T16:21:29.285Z,6.05
2023-06-19T16:23:58.423Z,6.25
2023-06-19T16:26:27.350Z,6.53
2023-06-19T16:28:56.450Z,6.50
2023-06-19T16:31:25.379Z,7.25
2023-06-19T16:33:54.583Z,7.43
2023-06-19T16:36:23.926Z,6.35
2023-06-19T16:38:53.172Z,6.05
2023-06-19T16:41:21.936Z,6.35
2023-06-19T16:43:51.254Z,6.18
2023-06-19T16:46:20.105Z,5.72
2023-06-19T16:48:49.233Z,6.07
2023-06-19T16:51:18.033Z,6.13
2023-06-19T16:53:47.249Z,5.82
2023-06-19T16:56:16.382Z,6.40
2023-06-19T16:58:45.564Z,6.35
2023-06-19T17:01:14.334Z,6.35
2023-06-19T17:03:43.560Z,6.82
2023-06-19T17:06:12.481Z,6.50
2023-06-19T17:08:41.782Z,6.88
2023-06-19T17:11:10.639Z,5.18
2023-06-19T17:13:40.020Z,6.57
2023-06-19T17:16:08.950Z,6.43
2023-06-19T17:18:38.228Z,6.80
2023-06-19T17:21:07.080Z,6.22
2023-06-19T17:23:36.437Z,6.95
2023-06-19T17:26:05.327Z,10.30
2023-06-19T17:28:34.649Z,7.05
2023-06-19T17:31:03.738Z,7.05
2023-06-19T17:33:32.912Z,6.53
2023-06-19T17:36:02.626Z,7.63
2023-06-19T17:38:32.056Z,6.53
2023-06-19T17:41:01.781Z,6.63
2023-06-19T17:43:30.840Z,6.60
2023-06-19T17:45:59.716Z,6.65
2023-06-19T17:48:29.359Z,6.18
2023-06-19T17:50:58.282Z,6.28
2023-06-19T17:53:27.380Z,6.25
2023-06-19T17:55:56.363Z,6.68
2023-06-19T17:58:25.493Z,5.90
2023-06-19T18:00:54.642Z,6.45
2023-06-19T18:03:23.965Z,7.80
2023-06-19T18:05:52.751Z,6.32
2023-06-19T18:08:21.864Z,6.55
2023-06-19T18:10:50.806Z,6.38
2023-06-19T18:13:19.961Z,6.43
2023-06-19T18:15:58.850Z,5.88
2023-06-19T18:18:38.623Z,7.38
2023-06-19T18:21:07.404Z,6.68
2023-06-19T18:23:36.907Z,6.22
2023-06-19T18:26:05.672Z,6.10
2023-06-19T18:28:35.235Z,6.93
2023-06-19T18:31:04.090Z,6.68
2023-06-19T18:33:33.286Z,6.43
2023-06-19T18:36:02.279Z,6.63
2023-06-19T18:38:31.538Z,6.60
2023-06-19T18:41:00.354Z,7.00
2023-06-19T18:43:29.543Z,6.55
2023-06-19T18:45:58.354Z,6.18
2023-06-19T18:48:29.111Z,7.68
2023-06-19T18:50:58.108Z,6.93
2023-06-19T18:53:27.261Z,6.10
2023-06-19T18:55:56.850Z,6.60
2023-06-19T18:58:26.173Z,6.22
2023-06-19T19:00:55.032Z,5.85
2023-06-19T19:03:24.510Z,6.45
2023-06-19T19:05:53.486Z,5.55
2023-06-19T19:08:24.156Z,6.45
2023-06-19T19:10:53.005Z,6.68
2023-06-19T19:13:22.168Z,6.68
2023-06-19T19:15:51.088Z,6.10
2023-06-19T19:18:20.193Z,6.47
2023-06-19T19:20:49.153Z,6.85
2023-06-19T19:23:18.251Z,6.40
2023-06-19T19:25:47.020Z,6.70
2023-06-19T19:28:16.236Z,7.07
2023-06-19T19:30:46.405Z,6.75
2023-06-19T19:33:17.554Z,6.28
2023-06-19T19:35:46.482Z,6.60
2023-06-19T19:38:18.951Z,6.28
2023-06-19T19:40:48.390Z,6.40
2023-06-19T19:43:18.003Z,5.90
2023-06-19T19:45:46.859Z,6.88
2023-06-19T19:48:16.132Z,6.50
2023-06-19T19:50:45.028Z,6.15
2023-06-19T19:53:14.214Z,7.32
2023-06-19T19:55:43.497Z,7.30
2023-06-19T19:58:14.677Z,7.10
2023-06-19T20:00:48.701Z,6.55
2023-06-19T20:03:18.393Z,6.47
2023-06-19T20:05:47.384Z,6.30
2023-06-19T20:08:16.487Z,6.53
2023-06-19T20:10:46.799Z,7.43
2023-06-19T20:13:16.221Z,6.75
2023-06-19T20:15:48.043Z,7.03
2023-06-19T20:18:17.361Z,6.78
2023-06-19T20:20:46.409Z,7.80
2023-06-19T20:23:15.549Z,7.32
2023-06-19T20:25:46.128Z,7.65
2023-06-19T20:28:15.266Z,7.32
2023-06-19T20:30:44.191Z,8.15
2023-06-19T20:33:13.600Z,6.88
2023-06-19T20:35:42.517Z,7.25
2023-06-19T20:38:11.848Z,7.30
2023-06-19T20:40:40.775Z,7.65
2023-06-19T20:43:10.429Z,7.25
2023-06-19T20:45:42.052Z,7.82
2023-06-19T20:48:11.355Z,8.53
2023-06-19T20:50:40.159Z,6.47
2023-06-19T20:53:09.309Z,7.35
2023-06-19T20:55:38.226Z,7.75
2023-06-19T20:58:07.487Z,7.65
2023-06-19T21:00:36.367Z,6.82
2023-06-19T21:03:10.078Z,7.13
2023-06-19T21:05:40.920Z,7.28
2023-06-19T21:08:10.158Z,7.95
2023-06-19T21:10:41.462Z,7.18
2023-06-19T21:15:46.861Z,6.88
2023-06-19T21:18:16.703Z,6.70
2023-06-19T21:20:45.631Z,7.22
2023-06-19T21:23:15.059Z,7.95
2023-06-19T21:25:43.916Z,7.65
2023-06-19T21:28:13.151Z,7.20
2023-06-19T21:30:42.051Z,6.85
2023-06-19T21:33:11.490Z,7.53
2023-06-19T21:35:40.435Z,7.53
2023-06-19T21:38:09.584Z,7.97
2023-06-19T21:40:38.451Z,8.10
2023-06-19T21:43:08.217Z,7.97
2023-06-19T21:45:37.145Z,7.78
2023-06-19T21:48:06.553Z,7.22
2023-06-19T21:50:35.574Z,7.63
2023-06-19T21:53:04.739Z,7.30
2023-06-19T21:55:33.530Z,7.10
2023-06-19T21:58:02.847Z,7.45
2023-06-19T22:00:31.618Z,8.07
2023-06-19T22:03:00.917Z,7.20
2023-06-19T22:05:30.037Z,7.57
2023-06-19T22:07:59.268Z,8.70
2023-06-19T22:10:28.291Z,8.13
2023-06-19T22:12:57.908Z,8.40
2023-06-19T22:15:26.852Z,8.35
2023-06-19T22:17:55.951Z,8.70
2023-06-19T22:20:25.015Z,7.72
2023-06-19T22:22:54.321Z,8.10
2023-06-19T22:25:23.212Z,7.93
2023-06-19T22:27:55.809Z,7.15
2023-06-19T22:30:25.166Z,7.85
2023-06-19T22:32:55.097Z,7.60
2023-06-19T22:35:24.475Z,7.55
2023-06-19T22:37:54.454Z,7.13
2023-06-19T22:40:24.260Z,7.15
2023-06-19T22:42:54.017Z,8.52
2023-06-19T22:45:23.108Z,7.88
2023-06-19T22:47:52.740Z,8.00
2023-06-19T22:50:21.743Z,8.25
2023-06-19T22:52:50.918Z,8.45
2023-06-19T22:55:19.888Z,8.88
2023-06-19T22:57:49.660Z,7.40
2023-06-19T23:00:18.583Z,8.18
2023-06-19T23:02:47.780Z,7.22
2023-06-19T23:05:17.336Z,9.05
2023-06-19T23:07:46.460Z,8.30
2023-06-19T23:10:15.278Z,8.63
2023-06-19T23:12:44.697Z,8.98
2023-06-19T23:15:13.672Z,8.27
2023-06-19T23:17:42.849Z,8.13
2023-06-19T23:20:15.625Z,8.93
2023-06-19T23:22:44.777Z,8.60
2023-06-19T23:25:13.597Z,10.32
2023-06-19T23:27:42.636Z,9.77
2023-06-19T23:30:11.754Z,8.95
2023-06-19T23:32:41.036Z,9.85
2023-06-19T23:35:10.144Z,8.80
2023-06-19T23:37:39.611Z,8.35
2023-06-19T23:40:09.480Z,8.95
2023-06-19T23:42:38.962Z,9.02
2023-06-19T23:45:08.670Z,9.35
2023-06-19T23:47:37.889Z,8.90
2023-06-19T23:50:08.336Z,9.27
2023-06-19T23:52:43.447Z,8.70
2023-06-19T23:55:13.342Z,8.32
2023-06-19T23:57:42.429Z,10.10
